createdAt,value
2023-01-22T00:00:46.965Z,21.50
2023-01-22T00:03:15.091Z,21.50
2023-01-22T00:05:43.144Z,21.50
2023-01-22T00:08:11.172Z,21.50
2023-01-22T00:10:39.138Z,21.50
2023-01-22T00:13:07.071Z,21.40
2023-01-22T00:15:35.101Z,21.40
2023-01-22T00:18:04.544Z,21.40
2023-01-22T00:20:32.501Z,21.40
2023-01-22T00:23:00.473Z,21.40
2023-01-22T00:25:28.470Z,21.30
2023-01-22T00:27:56.521Z,21.30
2023-01-22T00:30:24.483Z,21.30
2023-01-22T00:32:52.597Z,21.30
2023-01-22T00:35:21.904Z,21.30
2023-01-22T00:37:49.937Z,21.30
2023-01-22T00:40:18.647Z,21.30
2023-01-22T00:42:46.801Z,21.20
2023-01-22T00:45:15.105Z,21.20
2023-01-22T00:47:43.093Z,21.20
2023-01-22T00:50:12.428Z,21.20
2023-01-22T00:52:41.741Z,21.10
2023-01-22T00:55:10.550Z,21.10
2023-01-22T00:57:38.513Z,21.10
2023-01-22T01:00:07.772Z,21.10
2023-01-22T01:02:56.235Z,21.10
2023-01-22T01:05:24.225Z,21.10
2023-01-22T01:07:53.559Z,21.00
2023-01-22T01:10:21.612Z,21.00
2023-01-22T01:12:49.614Z,21.00
2023-01-22T01:15:17.681Z,21.00
2023-01-22T01:17:46.242Z,21.00
2023-01-22T01:20:14.294Z,21.00
2023-01-22T01:22:42.266Z,20.90
2023-01-22T01:25:11.599Z,20.90
2023-01-22T01:27:39.596Z,20.90
2023-01-22T01:30:08.916Z,20.90
2023-01-22T01:32:36.889Z,20.90
2023-01-22T01:35:05.441Z,20.90
2023-01-22T01:37:33.435Z,20.90
2023-01-22T01:40:01.390Z,20.80
2023-01-22T01:42:32.895Z,20.90
2023-01-22T01:45:23.159Z,20.80
2023-01-22T01:47:53.041Z,20.80
2023-01-22T01:50:21.052Z,20.90
2023-01-22T01:52:49.064Z,21.00
2023-01-22T01:55:17.224Z,21.00
2023-01-22T01:57:46.583Z,21.20
2023-01-22T02:00:15.292Z,21.40
2023-01-22T02:02:43.341Z,21.50
2023-01-22T02:05:11.696Z,21.70
2023-01-22T02:07:39.697Z,21.90
2023-01-22T02:10:08.063Z,22.10
2023-01-22T02:12:36.044Z,22.40
2023-01-22T02:15:06.106Z,22.60
2023-01-22T02:17:34.079Z,22.90
2023-01-22T02:20:02.099Z,23.10
2023-01-22T02:22:32.177Z,23.30
2023-01-22T02:25:00.187Z,23.60
2023-01-22T02:27:28.172Z,23.80
2023-01-22T02:29:56.146Z,23.90
2023-01-22T02:32:24.092Z,24.10
2023-01-22T02:34:52.148Z,24.20
2023-01-22T02:37:20.133Z,24.30
2023-01-22T02:39:49.440Z,24.40
2023-01-22T02:42:17.392Z,24.40
2023-01-22T02:44:45.348Z,24.40
2023-01-22T02:47:13.348Z,24.40
2023-01-22T02:49:41.290Z,24.40
2023-01-22T02:52:09.297Z,24.50
2023-01-22T02:54:37.392Z,24.50
2023-01-22T02:57:06.794Z,24.60
2023-01-22T02:59:35.613Z,24.70
2023-01-22T03:02:03.594Z,24.80
2023-01-22T03:04:31.909Z,24.90
2023-01-22T03:06:59.919Z,24.90
2023-01-22T03:09:28.071Z,24.90
2023-01-22T03:11:56.065Z,24.90
2023-01-22T03:14:42.893Z,24.90
2023-01-22T03:17:28.201Z,24.90
2023-01-22T03:20:13.574Z,24.90
2023-01-22T03:22:41.514Z,25.00
2023-01-22T03:25:09.840Z,25.10
2023-01-22T03:27:38.078Z,25.20
2023-01-22T03:30:08.376Z,25.30
2023-01-22T03:32:36.351Z,25.40
2023-01-22T03:35:04.573Z,25.50
2023-01-22T03:37:32.811Z,25.60
2023-01-22T03:40:00.780Z,25.70
2023-01-22T03:42:28.719Z,25.70
2023-01-22T03:44:56.693Z,25.70
2023-01-22T03:47:26.026Z,25.80
2023-01-22T03:49:53.998Z,25.70
2023-01-22T03:52:21.924Z,25.70
2023-01-22T03:54:49.911Z,25.70
2023-01-22T03:57:17.879Z,25.70
2023-01-22T03:59:45.852Z,25.70
2023-01-22T04:02:13.847Z,25.70
2023-01-22T04:04:44.678Z,25.70
2023-01-22T04:07:12.656Z,25.70
2023-01-22T04:09:40.611Z,25.70
2023-01-22T04:12:08.986Z,25.70
2023-01-22T04:14:36.936Z,25.70
2023-01-22T04:17:04.877Z,25.70
2023-01-22T04:19:32.909Z,25.60
2023-01-22T04:22:02.221Z,25.60
2023-01-22T04:24:30.252Z,25.60
2023-01-22T04:26:58.260Z,25.50
2023-01-22T04:29:26.235Z,25.50
2023-01-22T04:31:54.186Z,25.40
2023-01-22T04:34:22.169Z,25.40
2023-01-22T04:36:50.123Z,25.40
2023-01-22T04:39:19.440Z,25.40
2023-01-22T04:41:47.395Z,25.50
2023-01-22T04:44:15.350Z,25.60
2023-01-22T04:46:43.334Z,25.70
2023-01-22T04:49:11.278Z,25.70
2023-01-22T04:51:39.284Z,25.80
2023-01-22T04:54:07.240Z,25.80
2023-01-22T04:56:36.565Z,25.80
2023-01-22T04:59:04.527Z,25.70
2023-01-22T05:01:32.472Z,25.70
2023-01-22T05:04:02.520Z,25.70
2023-01-22T05:06:31.036Z,25.60
2023-01-22T05:08:58.967Z,25.50
2023-01-22T05:11:26.944Z,25.40
2023-01-22T05:13:56.275Z,25.40
2023-01-22T05:16:24.252Z,25.30
2023-01-22T05:18:52.208Z,25.20
2023-01-22T05:21:20.303Z,25.10
2023-01-22T05:23:48.400Z,25.10
2023-01-22T05:26:16.385Z,25.00
2023-01-22T05:28:44.434Z,24.90
2023-01-22T05:31:13.889Z,24.90
2023-01-22T05:33:42.733Z,24.80
2023-01-22T05:36:12.680Z,24.70
2023-01-22T05:38:40.847Z,24.60
2023-01-22T05:41:08.814Z,24.60
2023-01-22T05:43:38.089Z,24.50
2023-01-22T05:46:06.551Z,24.40
2023-01-22T05:48:35.898Z,24.40
2023-01-22T05:51:04.640Z,24.30
2023-01-22T05:53:32.658Z,24.20
2023-01-22T05:56:02.639Z,24.20
2023-01-22T05:58:30.673Z,24.10
2023-01-22T06:00:58.681Z,24.00
2023-01-22T06:03:26.774Z,23.90
2023-01-22T06:06:02.543Z,23.90
2023-01-22T06:08:31.156Z,23.80
2023-01-22T06:11:01.277Z,23.80
2023-01-22T06:13:29.261Z,23.70
2023-01-22T06:15:57.258Z,23.70
2023-01-22T06:18:25.516Z,23.70
2023-01-22T06:20:53.463Z,23.70
2023-01-22T06:23:22.863Z,23.60
2023-01-22T06:25:53.300Z,23.50
2023-01-22T06:28:21.300Z,23.50
2023-01-22T06:30:49.335Z,23.50
2023-01-22T06:33:17.371Z,23.50
2023-01-22T06:35:45.317Z,23.40
2023-01-22T06:38:13.268Z,23.30
2023-01-22T06:40:42.624Z,23.30
2023-01-22T06:43:10.912Z,23.30
2023-01-22T06:45:39.556Z,23.20
2023-01-22T06:48:07.840Z,23.20
2023-01-22T06:50:35.824Z,23.20
2023-01-22T06:53:03.790Z,23.10
2023-01-22T06:55:31.736Z,23.10
2023-01-22T06:58:01.184Z,23.10
2023-01-22T07:00:29.142Z,23.00
2023-01-22T07:02:57.110Z,23.00
2023-01-22T07:05:25.317Z,22.90
2023-01-22T07:07:54.334Z,22.90
2023-01-22T07:10:22.365Z,22.90
2023-01-22T07:12:50.484Z,22.90
2023-01-22T07:15:19.877Z,22.80
2023-01-22T07:17:51.112Z,22.80
2023-01-22T07:20:19.601Z,22.80
2023-01-22T07:22:47.874Z,22.70
2023-01-22T07:25:15.931Z,22.70
2023-01-22T07:27:43.975Z,22.70
2023-01-22T07:30:12.982Z,22.60
2023-01-22T07:32:42.851Z,22.60
2023-01-22T07:35:10.986Z,22.60
2023-01-22T07:37:38.998Z,22.60
2023-01-22T07:40:08.379Z,22.50
2023-01-22T07:42:38.574Z,22.50
2023-01-22T07:45:07.685Z,22.50
2023-01-22T07:47:35.625Z,22.50
2023-01-22T07:50:05.419Z,22.50
2023-01-22T07:52:33.423Z,22.50
2023-01-22T07:55:01.468Z,22.50
2023-01-22T07:57:29.446Z,22.50
2023-01-22T07:59:57.388Z,22.50
2023-01-22T08:02:25.395Z,22.40
2023-01-22T08:04:53.388Z,22.40
2023-01-22T08:07:23.424Z,22.40
2023-01-22T08:09:51.752Z,22.40
2023-01-22T08:12:19.886Z,22.40
2023-01-22T08:14:47.857Z,22.40
2023-01-22T08:17:15.873Z,22.30
2023-01-22T08:19:43.815Z,22.30
2023-01-22T08:22:11.791Z,22.30
2023-01-22T08:24:42.682Z,22.30
2023-01-22T08:27:10.679Z,22.30
2023-01-22T08:29:38.616Z,22.20
2023-01-22T08:32:07.494Z,22.30
2023-01-22T08:34:35.493Z,22.30
2023-01-22T08:37:03.476Z,22.40
2023-01-22T08:39:31.452Z,22.50
2023-01-22T08:42:00.816Z,22.60
2023-01-22T08:44:28.807Z,22.80
2023-01-22T08:46:56.782Z,22.90
2023-01-22T08:49:25.236Z,23.10
2023-01-22T08:51:53.203Z,23.30
2023-01-22T08:54:21.210Z,23.50
2023-01-22T08:56:49.243Z,23.70
2023-01-22T08:59:18.619Z,23.90
2023-01-22T09:01:46.662Z,24.00
2023-01-22T09:04:14.720Z,24.10
2023-01-22T09:06:42.683Z,24.10
2023-01-22T09:09:10.639Z,24.10
2023-01-22T09:11:39.056Z,24.10
2023-01-22T09:14:08.430Z,24.10
2023-01-22T09:16:37.968Z,24.10
2023-01-22T09:19:06.006Z,24.10
2023-01-22T09:21:36.759Z,24.20
2023-01-22T09:24:04.978Z,24.20
2023-01-22T09:26:33.372Z,24.30
2023-01-22T09:29:04.177Z,24.40
2023-01-22T09:31:32.219Z,24.50
2023-01-22T09:34:01.871Z,24.60
2023-01-22T09:36:29.970Z,24.70
2023-01-22T09:38:57.989Z,24.90
2023-01-22T09:41:27.837Z,25.00
2023-01-22T09:43:58.111Z,25.10
2023-01-22T09:46:28.813Z,25.10
2023-01-22T09:48:59.164Z,25.10
2023-01-22T09:51:28.559Z,25.10
2023-01-22T09:53:58.298Z,25.10
2023-01-22T09:56:30.952Z,25.10
2023-01-22T09:58:58.944Z,25.10
2023-01-22T10:01:27.064Z,25.20
2023-01-22T10:03:56.335Z,25.20
2023-01-22T10:06:25.225Z,25.30
2023-01-22T10:08:58.284Z,25.40
2023-01-22T10:11:26.397Z,25.50
2023-01-22T10:13:56.615Z,25.60
2023-01-22T10:16:24.780Z,25.70
2023-01-22T10:18:56.796Z,25.70
2023-01-22T10:21:27.393Z,25.80
2023-01-22T10:23:58.123Z,25.90
2023-01-22T10:26:30.428Z,26.00
2023-01-22T10:28:59.513Z,26.10
2023-01-22T10:31:28.845Z,26.10
2023-01-22T10:33:58.567Z,26.20
2023-01-22T10:36:26.790Z,26.20
2023-01-22T10:39:05.996Z,26.20
2023-01-22T10:41:34.034Z,26.10
2023-01-22T10:44:18.261Z,26.10
2023-01-22T10:46:49.202Z,25.90
2023-01-22T10:49:18.530Z,25.90
2023-01-22T10:51:47.950Z,25.80
2023-01-22T10:54:21.270Z,25.80
2023-01-22T10:56:49.249Z,25.70
2023-01-22T10:59:22.988Z,25.70
2023-01-22T11:01:55.946Z,25.60
2023-01-22T11:04:24.879Z,25.60
2023-01-22T11:06:54.278Z,25.50
2023-01-22T11:09:25.941Z,25.50
2023-01-22T11:11:57.692Z,25.40
2023-01-22T11:14:28.693Z,25.30
2023-01-22T11:16:59.821Z,25.30
2023-01-22T11:19:37.309Z,25.20
2023-01-22T11:22:07.532Z,25.20
2023-01-22T11:24:38.122Z,25.20
2023-01-22T11:27:14.214Z,25.20
2023-01-22T11:30:02.171Z,25.20
2023-01-22T11:32:48.066Z,25.30
2023-01-22T11:35:20.693Z,25.40
2023-01-22T11:37:58.566Z,25.50
2023-01-22T11:40:28.973Z,25.70
2023-01-22T11:43:21.427Z,25.80
2023-01-22T11:46:07.849Z,25.90
2023-01-22T11:48:42.709Z,25.90
2023-01-22T11:51:20.616Z,25.90
2023-01-22T11:54:06.686Z,25.90
2023-01-22T11:56:45.801Z,25.80
2023-01-22T11:59:17.145Z,25.80
2023-01-22T12:01:59.847Z,25.70
2023-01-22T12:04:45.094Z,25.70
2023-01-22T12:07:36.370Z,25.60
2023-01-22T12:10:26.014Z,25.60
2023-01-22T12:12:59.821Z,25.40
2023-01-22T12:15:34.859Z,25.40
2023-01-22T12:18:26.735Z,25.30
2023-01-22T12:21:05.779Z,25.20
2023-01-22T12:23:35.893Z,25.20
2023-01-22T12:26:05.388Z,25.10
2023-01-22T12:28:37.378Z,25.10
2023-01-22T12:31:09.005Z,25.10
2023-01-22T12:33:40.597Z,25.00
2023-01-22T12:36:13.174Z,25.10
2023-01-22T12:38:43.673Z,25.20
2023-01-22T12:41:40.171Z,25.30
2023-01-22T12:44:15.526Z,25.40
2023-01-22T12:46:50.739Z,25.50
2023-01-22T12:49:20.854Z,25.70
2023-01-22T12:51:49.695Z,25.80
2023-01-22T12:54:21.978Z,25.80
2023-01-22T12:56:50.213Z,25.90
2023-01-22T12:59:33.622Z,25.90
2023-01-22T13:02:05.516Z,25.80
2023-01-22T13:04:34.150Z,25.80
2023-01-22T13:07:06.209Z,25.80
2023-01-22T13:09:37.105Z,25.70
2023-01-22T13:12:11.360Z,25.70
2023-01-22T13:14:43.421Z,25.60
2023-01-22T13:17:18.740Z,25.60
2023-01-22T13:19:46.758Z,25.50
2023-01-22T13:22:16.807Z,25.40
2023-01-22T13:24:50.549Z,25.30
2023-01-22T13:27:23.835Z,25.30
2023-01-22T13:29:53.195Z,25.20
2023-01-22T13:32:22.240Z,25.20
2023-01-22T13:34:50.277Z,25.10
2023-01-22T13:37:22.172Z,25.00
2023-01-22T13:39:50.198Z,25.00
2023-01-22T13:42:18.171Z,24.90
2023-01-22T13:44:49.106Z,24.90
2023-01-22T13:47:27.437Z,24.90
2023-01-22T13:49:55.484Z,24.80
2023-01-22T13:52:23.568Z,24.90
2023-01-22T13:54:55.671Z,24.90
2023-01-22T13:57:23.631Z,25.00
2023-01-22T13:59:55.245Z,25.10
2023-01-22T14:02:25.417Z,25.20
2023-01-22T14:04:53.445Z,25.30
2023-01-22T14:07:25.349Z,25.50
2023-01-22T14:09:53.579Z,25.60
2023-01-22T14:12:22.656Z,25.70
2023-01-22T14:14:50.824Z,25.80
2023-01-22T14:17:28.743Z,25.80
2023-01-22T14:19:56.915Z,25.90
2023-01-22T14:22:25.025Z,25.80
2023-01-22T14:24:53.170Z,25.90
2023-01-22T14:27:21.524Z,26.00
2023-01-22T14:29:49.678Z,26.00
2023-01-22T14:32:17.709Z,26.10
2023-01-22T14:34:47.067Z,26.20
2023-01-22T14:37:16.614Z,26.30
2023-01-22T14:39:44.610Z,26.30
2023-01-22T14:42:12.587Z,26.40
2023-01-22T14:44:40.572Z,26.50
2023-01-22T14:47:08.710Z,26.60
2023-01-22T14:49:36.741Z,26.70
2023-01-22T14:52:06.255Z,26.70
2023-01-22T14:54:34.279Z,26.80
2023-01-22T14:57:03.486Z,26.90
2023-01-22T14:59:31.481Z,27.00
2023-01-22T15:01:59.467Z,27.00
2023-01-22T15:04:27.519Z,27.00
2023-01-22T15:06:55.568Z,27.00
2023-01-22T15:09:24.960Z,26.90
2023-01-22T15:11:52.953Z,26.80
2023-01-22T15:14:21.059Z,26.80
2023-01-22T15:16:49.079Z,26.70
2023-01-22T15:19:18.608Z,26.60
2023-01-22T15:21:46.720Z,26.50
2023-01-22T15:24:14.708Z,26.40
2023-01-22T15:26:44.140Z,26.30
2023-01-22T15:29:12.895Z,26.20
2023-01-22T15:31:41.317Z,26.20
2023-01-22T15:34:09.710Z,26.10
2023-01-22T15:36:39.433Z,26.00
2023-01-22T15:39:07.590Z,25.90
2023-01-22T15:41:36.494Z,25.80
2023-01-22T15:44:06.856Z,25.70
2023-01-22T15:46:35.903Z,25.70
2023-01-22T15:49:05.172Z,25.60
2023-01-22T15:51:33.134Z,25.50
2023-01-22T15:54:01.769Z,25.40
2023-01-22T15:56:31.268Z,25.40
2023-01-22T15:58:59.415Z,25.30
2023-01-22T16:01:29.129Z,25.30
2023-01-22T16:03:57.200Z,25.20
2023-01-22T16:06:26.677Z,25.20
2023-01-22T16:08:55.613Z,25.20
2023-01-22T16:11:23.732Z,25.20
2023-01-22T16:13:51.750Z,25.30
2023-01-22T16:16:21.911Z,25.40
2023-01-22T16:18:51.853Z,25.50
2023-01-22T16:21:20.436Z,25.60
2023-01-22T16:23:48.666Z,25.80
2023-01-22T16:26:17.556Z,25.90
2023-01-22T16:28:45.940Z,26.00
2023-01-22T16:31:15.885Z,26.10
2023-01-22T16:33:44.956Z,26.10
2023-01-22T16:36:15.659Z,26.10
2023-01-22T16:38:43.658Z,26.10
2023-01-22T16:41:24.889Z,26.20
2023-01-22T16:43:54.447Z,26.10
2023-01-22T16:46:24.384Z,26.10
2023-01-22T16:48:56.902Z,26.00
2023-01-22T16:51:27.015Z,26.00
2023-01-22T16:53:55.143Z,25.90
2023-01-22T16:56:23.149Z,25.80
2023-01-22T16:58:51.144Z,25.80
2023-01-22T17:01:19.194Z,25.70
2023-01-22T17:03:47.255Z,25.70
2023-01-22T17:06:21.722Z,25.60
2023-01-22T17:08:51.601Z,25.60
2023-01-22T17:11:19.676Z,25.50
2023-01-22T17:13:47.811Z,25.60
2023-01-22T17:16:15.889Z,25.60
2023-01-22T17:18:43.891Z,25.60
2023-01-22T17:21:14.359Z,25.70
2023-01-22T17:23:42.409Z,25.80
2023-01-22T17:26:12.914Z,26.00
2023-01-22T17:28:41.191Z,26.10
2023-01-22T17:31:09.385Z,26.20
2023-01-22T17:33:37.551Z,26.30
2023-01-22T17:36:06.204Z,26.40
2023-01-22T17:38:37.597Z,26.40
2023-01-22T17:41:08.626Z,26.40
2023-01-22T17:43:38.703Z,26.50
2023-01-22T17:46:10.853Z,26.50
2023-01-22T17:48:39.097Z,26.40
2023-01-22T17:51:08.875Z,26.40
2023-01-22T17:53:37.382Z,26.30
2023-01-22T17:56:07.184Z,26.30
2023-01-22T17:58:35.290Z,26.30
2023-01-22T18:01:05.890Z,26.20
2023-01-22T18:03:34.103Z,26.10
2023-01-22T18:06:02.163Z,26.10
2023-01-22T18:08:30.633Z,26.10
2023-01-22T18:10:58.649Z,26.00
2023-01-22T18:13:26.852Z,25.90
2023-01-22T18:15:54.874Z,25.90
2023-01-22T18:18:24.270Z,25.80
2023-01-22T18:20:52.277Z,25.70
2023-01-22T18:23:20.241Z,25.70
2023-01-22T18:25:50.439Z,25.60
2023-01-22T18:28:19.024Z,25.60
2023-01-22T18:30:47.626Z,25.50
2023-01-22T18:33:18.193Z,25.40
2023-01-22T18:35:48.489Z,25.40
2023-01-22T18:38:16.762Z,25.30
2023-01-22T18:40:44.730Z,25.30
2023-01-22T18:43:12.768Z,25.30
2023-01-22T18:45:41.301Z,25.20
2023-01-22T18:48:11.217Z,25.10
2023-01-22T18:50:39.192Z,25.10
2023-01-22T18:53:09.544Z,25.20
2023-01-22T18:55:37.631Z,25.10
2023-01-22T18:58:30.520Z,25.10
2023-01-22T19:00:59.328Z,25.00
2023-01-22T19:03:27.437Z,24.90
2023-01-22T19:05:56.943Z,24.90
2023-01-22T19:08:26.471Z,24.90
2023-01-22T19:10:54.483Z,24.80
2023-01-22T19:13:22.493Z,24.80
2023-01-22T19:15:50.481Z,24.80
2023-01-22T19:18:18.501Z,24.70
2023-01-22T19:20:46.514Z,24.70
2023-01-22T19:23:14.522Z,24.60
2023-01-22T19:25:43.970Z,24.60
2023-01-22T19:28:12.015Z,24.60
2023-01-22T19:30:40.116Z,24.60
2023-01-22T19:33:08.158Z,24.50
2023-01-22T19:35:36.218Z,24.50
2023-01-22T19:38:05.181Z,24.40
2023-01-22T19:40:33.387Z,24.40
2023-01-22T19:43:02.831Z,24.40
2023-01-22T19:45:30.873Z,24.30
2023-01-22T19:47:59.279Z,24.30
2023-01-22T19:50:27.491Z,24.30
2023-01-22T19:52:55.588Z,24.30
2023-01-22T19:55:26.073Z,24.20
2023-01-22T19:57:55.169Z,24.20
2023-01-22T20:00:24.626Z,24.20
2023-01-22T20:02:52.713Z,24.10
2023-01-22T20:05:21.450Z,24.10
2023-01-22T20:07:49.731Z,24.10
2023-01-22T20:10:19.136Z,24.00
2023-01-22T20:12:50.262Z,24.00
2023-01-22T20:15:19.423Z,23.90
2023-01-22T20:17:50.186Z,23.90
2023-01-22T20:20:18.390Z,23.90
2023-01-22T20:22:46.383Z,23.90
2023-01-22T20:25:15.366Z,23.90
2023-01-22T20:27:43.552Z,23.80
2023-01-22T20:30:12.488Z,23.80
2023-01-22T20:32:40.463Z,23.80
2023-01-22T20:35:11.821Z,23.70
2023-01-22T20:37:39.863Z,23.70
2023-01-22T20:40:09.227Z,23.70
2023-01-22T20:42:37.222Z,23.70
2023-01-22T20:45:05.905Z,23.70
2023-01-22T20:47:34.732Z,23.60
2023-01-22T20:50:02.732Z,23.60
2023-01-22T20:52:32.151Z,23.60
2023-01-22T20:55:02.480Z,23.60
2023-01-22T20:57:30.863Z,23.50
2023-01-22T20:59:58.890Z,23.50
2023-01-22T21:02:26.975Z,23.50
2023-01-22T21:04:56.785Z,23.50
2023-01-22T21:07:24.855Z,23.50
2023-01-22T21:09:54.231Z,23.50
2023-01-22T21:12:22.264Z,23.40
2023-01-22T21:14:53.711Z,23.40
2023-01-22T21:17:22.301Z,23.40
2023-01-22T21:19:51.647Z,23.30
2023-01-22T21:22:19.648Z,23.30
2023-01-22T21:24:47.661Z,23.30
2023-01-22T21:27:17.088Z,23.30
2023-01-22T21:29:45.161Z,23.30
2023-01-22T21:32:15.262Z,23.20
2023-01-22T21:34:43.269Z,23.20
2023-01-22T21:37:11.263Z,23.20
2023-01-22T21:39:44.962Z,23.20
2023-01-22T21:42:30.663Z,23.10
2023-01-22T21:45:29.077Z,23.10
2023-01-22T21:47:57.046Z,23.10
2023-01-22T21:50:25.086Z,23.10
2023-01-22T21:52:54.407Z,23.00
2023-01-22T21:55:23.536Z,23.00
2023-01-22T21:57:52.185Z,22.90
2023-01-22T22:00:21.919Z,23.00
2023-01-22T22:02:52.031Z,22.90
2023-01-22T22:05:20.014Z,23.00
2023-01-22T22:07:48.003Z,22.90
2023-01-22T22:10:16.039Z,22.90
2023-01-22T22:12:44.047Z,22.90
2023-01-22T22:15:12.422Z,22.90
2023-01-22T22:17:41.780Z,22.90
2023-01-22T22:20:11.717Z,22.80
2023-01-22T22:22:39.734Z,22.80
2023-01-22T22:25:08.389Z,22.80
2023-01-22T22:27:36.672Z,22.80
2023-01-22T22:30:05.012Z,22.80
2023-01-22T22:32:33.055Z,22.70
2023-01-22T22:35:02.365Z,22.80
2023-01-22T22:37:30.332Z,22.70
2023-01-22T22:39:58.309Z,22.70
2023-01-22T22:42:26.582Z,22.70
2023-01-22T22:44:54.555Z,22.70
2023-01-22T22:47:22.535Z,22.70
2023-01-22T22:49:50.559Z,22.70
2023-01-22T22:52:21.181Z,22.60
2023-01-22T22:54:49.881Z,22.60
2023-01-22T22:57:17.869Z,22.60
2023-01-22T22:59:46.136Z,22.60
2023-01-22T23:02:14.146Z,22.60
2023-01-22T23:04:42.121Z,22.50
2023-01-22T23:07:10.245Z,22.50
2023-01-22T23:09:39.661Z,22.50
2023-01-22T23:12:07.795Z,22.50
2023-01-22T23:14:35.786Z,22.50
2023-01-22T23:17:04.754Z,22.40
2023-01-22T23:19:32.723Z,22.40
2023-01-22T23:22:01.249Z,22.40
2023-01-22T23:24:29.563Z,22.40
2023-01-22T23:26:58.920Z,22.40
2023-01-22T23:29:29.103Z,22.40
2023-01-22T23:31:57.667Z,22.30
2023-01-22T23:34:25.664Z,22.30
2023-01-22T23:36:53.664Z,22.30
2023-01-22T23:39:21.979Z,22.30
2023-01-22T23:41:49.929Z,22.20
2023-01-22T23:44:19.285Z,22.30
2023-01-22T23:46:47.291Z,22.30
2023-01-22T23:49:15.321Z,22.20
2023-01-22T23:51:44.703Z,22.20
2023-01-22T23:54:12.965Z,22.20
2023-01-22T23:56:40.963Z,22.20
2023-01-22T23:59:10.332Z,22.20
